Terminal Aerodrome Forecast
Issued by NWS Twin Cities, MN

Home | Current Version | Previous Version | Text Only | Print | Product List | Glossary On
Versions: 1 2 3 4 5 6 7 8 9 10 11 12 13 14 15 16 17 18 19 20 21 22 23 24 25
000
FTUS43 KMPX 020000 CCA
TAFMSP
TAF COR
KMSP 020002Z 0200/0306 30007KT P6SM VCTS BKN060CB
     FM020100 33004KT P6SM SKC
     FM020400 15003KT P6SM SKC
     FM021500 18006KT P6SM SCT050 BKN150
     FM030000 21005KT P6SM BKN100=

USA.gov is the U.S. government's official web portal to all federal, state and local government web resources and services.